Time;durP1;ratioP1;P1;durP2;ratioP2;P2;SDS_P1;SDS_P2;PMS_P1;PMS_P2;Temp;Humidity;BMP_temperature;BMP_pressure;BME280_temperature;BME280_humidity;BME280_pressure;Samples;Min_cycle;Max_cycle;Signal;HPM_P1;HPM_P2
2022/08/13 02:08:36;;;;;;;;;;;;;;;;;;;;;
2022/08/13 02:15:42;;;;;;;;;;;;;;;;;;;;;
2022/08/13 02:51:10;;;;;;;;;;;;;;;;;;;;;
2022/08/13 02:54:12;;;;;;;;;;;;;;;;;;;;;
2022/08/13 03:01:04;;;;;;;;;;;;;;;;;;;;;
2022/08/13 03:36:30;;;;;;;;;;;;;;;;;;;;;
2022/08/13 03:40:02;;;;;;;;;;;;;;;;;;;;;
2022/08/13 03:43:25;;;;;;;;;;;;;;;;;;;;;
2022/08/13 03:46:22;;;;;;;;;;;;;;;;;;;;;
2022/08/13 03:49:31;;;;;;;7.18;4.80;;;23.00;45.60;;;;;;5864333;24;20136;-83
2022/08/13 03:52:11;;;;;;;;;;;;;;;;;;;;;
2022/08/13 04:08:35;;;;;;;6.68;4.75;;;22.80;45.40;;;;;;5950253;24;20025;-83
2022/08/13 04:18:18;;;;;;;;;;;;;;;;;;;;;
2022/08/13 04:21:41;;;;;;;;;;;;;;;;;;;;;
2022/08/13 04:32:38;;;;;;;;;;;;;;;;;;;;;
2022/08/13 04:39:23;;;;;;;;;;;;;;;;;;;;;
2022/08/13 04:45:30;;;;;;;7.07;4.95;;;22.50;45.70;;;;;;6034382;23;20007;-84
2022/08/13 04:48:17;;;;;;;7.70;5.47;;;22.50;45.70;;;;;;6096824;23;20014;-83
2022/08/13 04:50:49;;;;;;;6.40;5.53;;;22.40;46.00;;;;;;6110503;23;20065;-83
2022/08/13 04:53:51;;;;;;;6.32;5.50;;;22.30;46.10;;;;;;6161796;23;20001;-83
2022/08/13 05:00:16;;;;;;;8.90;5.13;;;22.40;46.20;;;;;;6177207;23;20009;-84
2022/08/13 05:02:52;;;;;;;6.70;5.28;;;22.30;46.30;;;;;;6160428;23;20029;-84
2022/08/13 05:06:04;;;;;;;6.53;5.18;;;22.30;46.20;;;;;;6161717;23;20051;-84
2022/08/13 05:08:43;;;;;;;;;;;;;;;;;;;;;
2022/08/13 05:12:11;;;;;;;6.75;4.97;;;22.30;46.20;;;;;;6217985;23;20052;-84
2022/08/13 05:18:20;;;;;;;;;;;;;;;;;;;;;
2022/08/13 05:28:51;;;;;;;5.25;4.65;;;22.20;46.20;;;;;;6040463;23;20020;-85
2022/08/13 05:31:17;;;;;;;5.57;4.93;;;22.10;46.10;;;;;;6096929;23;20083;-82
2022/08/13 05:33:44;;;;;;;8.43;4.53;;;22.10;46.20;;;;;;6096305;23;20098;-82
2022/08/13 05:36:10;;;;;;;7.35;5.32;;;22.10;45.90;;;;;;6190780;23;20083;-82
2022/08/13 05:38:37;;;;;;;5.72;4.80;;;22.10;45.90;;;;;;6191804;23;20035;-82
2022/08/13 05:41:05;;;;;;;5.00;4.13;;;22.20;45.90;;;;;;6191603;23;20082;-82
2022/08/13 05:43:36;;;;;;;8.07;5.03;;;22.20;46.20;;;;;;6191758;23;20057;-82
2022/08/13 05:46:05;;;;;;;7.25;4.50;;;22.20;46.20;;;;;;6217682;23;20008;-82
2022/08/13 05:48:36;;;;;;;6.30;4.70;;;22.20;46.60;;;;;;6219005;23;19996;-82
2022/08/13 05:51:05;;;;;;;6.25;4.93;;;22.30;46.80;;;;;;6220254;23;19997;-82
2022/08/13 05:53:32;;;;;;;6.17;4.77;;;22.30;46.70;;;;;;6193386;23;20005;-82
2022/08/13 05:56:11;;;;;;;4.97;4.22;;;22.30;47.10;;;;;;6193841;23;20005;-85
2022/08/13 05:58:37;;;;;;;5.85;4.32;;;22.30;47.40;;;;;;6193262;23;20516;-77
2022/08/13 06:03:47;;;;;;;6.47;4.70;;;22.30;46.60;;;;;;6219710;23;20479;-78
2022/08/13 06:06:15;;;;;;;4.95;4.28;;;22.30;46.90;;;;;;6193753;23;20008;-87
2022/08/13 06:08:43;;;;;;;6.03;4.70;;;22.30;47.50;;;;;;6189769;23;20519;-82
2022/08/13 06:11:13;;;;;;;6.90;5.05;;;22.30;47.60;;;;;;6189407;23;20029;-82
2022/08/13 06:13:39;;;;;;;;;;;22.20;47.80;;;;;;6164140;23;20024;-80
2022/08/13 06:16:08;;;;;;;8.05;4.63;;;22.30;48.20;;;;;;6189805;23;19954;-82
2022/08/13 06:18:36;;;;;;;10.43;4.97;;;22.30;47.90;;;;;;6163218;23;20005;-75
2022/08/13 06:21:07;;;;;;;5.35;4.55;;;22.30;48.80;;;;;;6189585;23;20063;-74
2022/08/13 06:23:35;;;;;;;7.15;4.55;;;22.40;48.90;;;;;;6189677;23;20346;-70
2022/08/13 06:26:03;;;;;;;5.05;4.25;;;22.40;49.00;;;;;;6163279;23;20015;-71
2022/08/13 06:28:30;;;;;;;5.45;4.50;;;22.30;49.40;;;;;;6189016;23;20067;-71
2022/08/13 06:31:01;;;;;;;7.80;5.25;;;22.30;49.70;;;;;;6189695;23;20009;-73
2022/08/13 06:33:28;;;;;;;7.28;4.53;;;22.40;49.60;;;;;;6189181;23;20433;-73
2022/08/13 06:36:00;;;;;;;5.97;4.63;;;22.40;49.90;;;;;;6187843;23;20004;-71
2022/08/13 06:38:40;;;;;;;5.00;4.25;;;22.50;49.60;;;;;;6188950;23;20001;-71
2022/08/13 06:41:07;;;;;;;5.20;4.40;;;22.50;49.70;;;;;;6163333;23;20464;-72
2022/08/13 06:43:39;;;;;;;7.15;4.82;;;22.60;50.00;;;;;;6189619;23;20012;-72
2022/08/13 06:46:05;;;;;;;5.47;4.70;;;22.60;50.00;;;;;;6188660;23;20013;-71
2022/08/13 06:48:35;;;;;;;5.72;3.85;;;22.70;49.70;;;;;;6189154;23;20008;-73
2022/08/13 06:51:06;;;;;;;4.75;4.15;;;22.70;49.80;;;;;;6189630;23;20005;-73
2022/08/13 06:53:35;;;;;;;4.72;4.07;;;22.80;49.20;;;;;;6189561;23;20092;-72
2022/08/13 06:56:03;;;;;;;5.30;4.15;;;22.80;48.80;;;;;;6189072;23;20001;-73
2022/08/13 06:58:30;;;;;;;7.00;4.22;;;22.90;48.90;;;;;;6188936;23;20001;-73
2022/08/13 07:00:56;;;;;;;4.57;3.83;;;23.00;49.10;;;;;;6189576;23;20056;-73
2022/08/13 07:03:27;;;;;;;5.45;4.07;;;23.10;49.40;;;;;;6189407;23;20008;-68
2022/08/13 07:05:56;;;;;;;3.45;3.08;;;23.10;49.20;;;;;;6188587;23;20005;-73
2022/08/13 07:08:24;;;;;;;7.57;3.67;;;23.20;48.00;;;;;;6189184;23;20100;-73
2022/08/13 07:11:21;;;;;;;5.32;2.85;;;23.30;46.90;;;;;;6219463;23;20011;-72
2022/08/13 07:13:39;;;;;;;4.07;2.75;;;23.40;45.00;;;;;;6218735;23;20028;-72
2022/08/13 07:16:10;;;;;;;4.20;2.83;;;23.70;44.80;;;;;;6219497;23;20393;-72
2022/08/13 07:18:36;;;;;;;4.32;2.53;;;23.80;44.60;;;;;;6190997;23;20001;-71
2022/08/13 07:21:07;;;;;;;3.10;2.35;;;24.00;43.90;;;;;;6218469;23;20062;-73
2022/08/13 07:23:33;;;;;;;3.22;2.35;;;24.40;43.00;;;;;;6218772;23;20054;-72
2022/08/13 07:26:00;;;;;;;5.63;3.30;;;25.70;40.50;;;;;;6218989;23;20080;-72
2022/08/13 07:28:27;;;;;;;4.57;2.67;;;27.80;36.00;;;;;;6217609;23;20011;-72
2022/08/13 07:30:54;;;;;;;7.40;2.53;;;28.30;35.90;;;;;;6191230;23;20012;-73
2022/08/13 07:33:21;;;;;;;3.38;2.35;;;28.50;34.40;;;;;;6218804;23;20031;-72
2022/08/13 07:35:47;;;;;;;4.35;2.88;;;28.30;34.40;;;;;;6217822;23;20460;-71
2022/08/13 07:38:13;;;;;;;4.57;2.78;;;27.60;35.60;;;;;;6218265;23;20058;-72
2022/08/13 07:40:41;;;;;;;3.90;2.28;;;27.20;36.20;;;;;;6216106;23;20005;-72
2022/08/13 07:43:07;;;;;;;4.30;2.78;;;27.10;35.30;;;;;;6216311;23;20004;-71
2022/08/13 07:45:33;;;;;;;3.72;2.50;;;27.40;36.60;;;;;;6217714;23;20425;-71
2022/08/13 07:48:01;;;;;;;3.17;2.05;;;28.40;34.80;;;;;;6217103;23;20008;-71
2022/08/13 07:50:27;;;;;;;4.50;2.40;;;29.60;33.70;;;;;;6217874;23;20399;-72
2022/08/13 07:52:58;;;;;;;5.00;2.97;;;31.30;30.70;;;;;;6217783;23;20032;-72
2022/08/13 07:55:25;;;;;;;3.40;2.30;;;33.00;28.20;;;;;;6218370;23;20001;-71
2022/08/13 07:57:54;;;;;;;4.53;2.20;;;34.30;26.20;;;;;;6218711;23;20007;-81
2022/08/13 08:00:25;;;;;;;2.05;1.85;;;35.80;24.60;;;;;;6189792;23;20012;-82
2022/08/13 08:03:01;;;;;;;4.28;2.20;;;36.50;21.90;;;;;;6217850;23;20011;-83
2022/08/13 08:05:35;;;;;;;3.47;1.88;;;37.30;22.00;;;;;;6191505;23;20570;-82
2022/08/13 08:08:04;;;;;;;4.28;2.00;;;38.00;21.70;;;;;;6191595;23;20027;-82
2022/08/13 08:10:31;;;;;;;5.78;2.00;;;38.00;20.20;;;;;;6215009;23;20005;-81
2022/08/13 08:13:00;;;;;;;4.53;2.22;;;37.70;20.40;;;;;;6218318;23;20010;-80
2022/08/13 08:15:27;;;;;;;6.78;2.20;;;38.20;21.00;;;;;;6223052;23;20004;-80
2022/08/13 08:17:54;;;;;;;2.58;2.22;;;38.80;20.90;;;;;;6195276;23;20004;-80
2022/08/13 08:20:21;;;;;;;3.40;1.55;;;38.90;20.10;;;;;;6195457;23;20413;-80
2022/08/13 08:22:50;;;;;;;3.17;1.73;;;39.30;19.90;;;;;;6222773;23;20000;-81
2022/08/13 08:25:21;;;;;;;3.95;1.60;;;39.90;19.20;;;;;;6195643;23;20004;-81
2022/08/13 08:27:49;;;;;;;2.15;1.80;;;40.20;18.20;;;;;;6191567;23;20088;-81
2022/08/13 08:30:19;;;;;;;2.38;1.95;;;39.70;17.50;;;;;;6195197;23;20113;-80
2022/08/13 08:32:53;;;;;;;4.22;1.60;;;40.20;18.40;;;;;;6193697;23;20001;-80
2022/08/13 08:35:20;;;;;;;3.00;1.45;;;40.40;18.80;;;;;;6193323;23;20452;-80
2022/08/13 08:43:34;;;;;;;3.95;1.50;;;38.90;19.70;;;;;;6218080;23;20809;-80
2022/08/13 08:46:03;;;;;;;2.15;1.65;;;38.10;20.10;;;;;;6188156;23;20009;-80
2022/08/13 08:48:34;;;;;;;4.00;1.80;;;37.50;19.90;;;;;;6188752;23;20012;-81
2022/08/13 08:51:01;;;;;;;2.22;1.60;;;37.40;19.70;;;;;;6188751;23;20005;-80
2022/08/13 08:53:28;;;;;;;5.22;1.95;;;37.00;20.20;;;;;;6213968;23;20064;-82
2022/08/13 08:55:55;;;;;;;3.03;1.63;;;37.40;19.80;;;;;;6189681;23;20001;-80
2022/08/13 08:58:22;;;;;;;4.18;1.67;;;37.90;20.10;;;;;;6217070;23;20001;-82
2022/08/13 09:00:53;;;;;;;4.93;1.73;;;38.70;19.90;;;;;;6217592;23;20035;-77
2022/08/13 09:03:19;;;;;;;2.08;1.85;;;39.70;19.30;;;;;;6218047;23;20043;-78
2022/08/13 09:05:48;;;;;;;3.13;1.48;;;40.20;17.50;;;;;;6217878;23;20004;-77
2022/08/13 09:08:18;;;;;;;3.55;1.55;;;40.50;17.70;;;;;;6191657;23;20012;-77
2022/08/13 09:10:52;;;;;;;3.13;1.70;;;40.60;17.50;;;;;;6217054;23;20011;-79
2022/08/13 09:13:21;;;;;;;3.55;1.85;;;40.40;18.30;;;;;;6218137;23;20005;-77
2022/08/13 09:15:50;;;;;;;3.17;1.42;;;40.10;18.10;;;;;;6191458;23;20009;-78
2022/08/13 09:18:21;;;;;;;4.65;1.67;;;39.60;18.60;;;;;;6191042;23;20453;-78
2022/08/13 09:20:49;;;;;;;5.47;1.55;;;39.30;17.80;;;;;;6216767;23;20000;-80
2022/08/13 09:23:17;;;;;;;5.57;1.58;;;38.90;18.10;;;;;;6190828;23;20005;-76
2022/08/13 09:25:50;;;;;;;3.25;1.63;;;38.60;19.20;;;;;;6217636;23;20008;-80
2022/08/13 09:28:23;;;;;;;4.68;1.00;;;38.60;18.80;;;;;;6216810;23;20020;-78
2022/08/13 09:30:51;;;;;;;3.33;1.50;;;39.00;19.20;;;;;;6216067;23;20449;-77
2022/08/13 09:33:22;;;;;;;3.10;1.35;;;39.50;18.80;;;;;;6217569;23;20058;-78
2022/08/13 09:35:50;;;;;;;4.53;1.80;;;40.60;18.20;;;;;;6213895;23;20009;-80
2022/08/13 09:38:18;;;;;;;3.05;1.50;;;41.50;17.40;;;;;;6217121;23;20005;-80
2022/08/13 09:41:08;;;;;;;3.17;1.63;;;41.90;16.50;;;;;;6217713;23;20009;-80
2022/08/13 09:43:39;;;;;;;4.25;1.42;;;42.10;15.40;;;;;;6191091;23;20015;-81
2022/08/13 09:46:07;;;;;;;7.05;1.52;;;42.50;15.90;;;;;;6216659;23;20009;-77
2022/08/13 09:48:33;;;;;;;1.77;1.10;;;43.20;15.00;;;;;;6191117;23;20004;-75
2022/08/13 09:51:02;;;;;;;2.20;1.27;;;43.60;14.70;;;;;;6189794;23;20036;-76
2022/08/13 09:53:29;;;;;;;4.65;1.50;;;43.90;14.30;;;;;;6216703;23;20031;-77
2022/08/13 09:55:55;;;;;;;1.75;1.20;;;43.90;13.00;;;;;;6217392;23;20001;-80
2022/08/13 09:58:22;;;;;;;3.40;1.30;;;44.40;14.00;;;;;;6217617;23;20428;-81
2022/08/13 10:00:50;;;;;;;12.15;11.23;;;44.40;13.60;;;;;;6217320;23;20026;-80
2022/08/13 10:03:18;;;;;;;4.13;1.55;;;44.40;12.30;;;;;;6215635;23;20000;-80
2022/08/13 10:05:44;;;;;;;;;;;44.10;13.10;;;;;;6218331;23;20008;-81
2022/08/13 10:08:17;;;;;;;3.67;1.10;;;43.70;12.60;;;;;;6191043;23;19915;-77
2022/08/13 10:10:44;;;;;;;2.45;1.30;;;43.40;13.10;;;;;;6217118;23;20000;-81
2022/08/13 10:13:10;;;;;;;3.80;1.50;;;43.60;12.80;;;;;;6216722;23;20064;-83
2022/08/13 10:15:37;;;;;;;4.28;1.23;;;42.80;13.00;;;;;;6215661;23;19996;-76
2022/08/13 10:18:04;;;;;;;3.35;1.30;;;42.70;13.40;;;;;;6215797;23;20016;-77
2022/08/13 10:20:38;;;;;;;2.83;1.30;;;42.90;13.20;;;;;;6215844;23;20032;-75
2022/08/13 10:23:07;;;;;;;1.60;1.08;;;42.60;13.00;;;;;;6215407;23;20005;-76
2022/08/13 10:25:34;;;;;;;2.08;1.30;;;42.30;13.10;;;;;;6189312;23;20016;-76
2022/08/13 10:27:59;;;;;;;2.17;1.48;;;42.30;13.60;;;;;;6216688;23;20005;-74
2022/08/13 10:30:27;;;;;;;3.20;1.10;;;42.10;12.60;;;;;;6221894;23;20008;-78
2022/08/13 10:32:55;;;;;;;2.35;1.40;;;41.70;13.80;;;;;;6218633;23;20060;-79
2022/08/13 10:35:27;;;;;;;100.90;30.02;;;41.20;14.50;;;;;;6196087;23;20388;-79
2022/08/13 10:37:56;;;;;;;2.58;1.20;;;40.80;14.70;;;;;;6193150;23;20016;-77
2022/08/13 10:40:24;;;;;;;4.22;1.52;;;39.40;14.90;;;;;;6219447;23;20062;-76
2022/08/13 10:42:52;;;;;;;4.10;1.40;;;38.50;15.40;;;;;;6219624;23;20019;-78
2022/08/13 10:45:19;;;;;;;3.30;1.70;;;38.10;15.80;;;;;;6219092;23;20027;-78
2022/08/13 10:47:49;;;;;;;3.63;1.35;;;37.60;15.50;;;;;;6219318;23;20051;-77
2022/08/13 10:50:18;;;;;;;1.80;1.02;;;37.20;16.20;;;;;;6219682;23;20005;-76
2022/08/13 10:52:44;;;;;;;3.25;1.13;;;37.10;16.80;;;;;;6219279;23;20000;-79
2022/08/13 10:55:13;;;;;;;3.38;1.45;;;36.80;16.60;;;;;;6219267;23;20001;-80
2022/08/13 10:57:41;;;;;;;2.28;1.50;;;36.50;16.30;;;;;;6193042;23;20012;-79
2022/08/13 11:00:09;;;;;;;4.18;1.38;;;36.40;16.80;;;;;;6219552;23;20016;-84
2022/08/13 11:02:37;;;;;;;2.20;1.30;;;36.30;17.20;;;;;;6192403;23;20013;-75
2022/08/13 11:05:09;;;;;;;2.60;1.55;;;36.20;16.60;;;;;;6192598;23;20243;-75
2022/08/13 11:07:37;;;;;;;2.80;1.50;;;36.30;17.60;;;;;;6218637;23;20017;-78
2022/08/13 11:10:05;;;;;;;4.00;1.75;;;36.30;17.70;;;;;;6192600;23;20000;-76
2022/08/13 11:12:33;;;;;;;4.15;1.08;;;36.30;16.80;;;;;;6217781;23;20005;-76
2022/08/13 11:15:00;;;;;;;1.80;1.23;;;36.30;16.80;;;;;;6216611;23;20058;-76
2022/08/13 11:17:26;;;;;;;3.67;1.45;;;36.40;16.50;;;;;;6189792;23;20012;-77
2022/08/13 11:19:52;;;;;;;1.98;1.25;;;36.30;16.50;;;;;;6188597;23;20023;-78
2022/08/13 11:22:34;;;;;;;5.82;1.30;;;36.30;16.80;;;;;;6205542;23;20028;-75
2022/08/13 11:25:03;;;;;;;2.80;1.60;;;36.10;17.00;;;;;;6188143;23;20067;-76
2022/08/13 11:27:32;;;;;;;2.13;1.40;;;36.30;16.50;;;;;;6189972;23;20009;-76
2022/08/13 11:29:58;;;;;;;1.77;1.10;;;36.30;16.10;;;;;;6188736;23;20009;-76
2022/08/13 11:32:23;;;;;;;2.13;1.27;;;36.40;16.10;;;;;;6217061;23;20004;-75
2022/08/13 11:34:49;;;;;;;2.38;1.48;;;36.30;16.30;;;;;;6217189;23;20345;-76
2022/08/13 11:37:15;;;;;;;2.25;1.17;;;36.40;17.00;;;;;;6218534;23;20040;-76
2022/08/13 11:39:40;;;;;;;3.45;1.35;;;36.60;16.80;;;;;;6189918;23;20024;-76
2022/08/13 11:42:06;;;;;;;2.55;1.20;;;36.40;16.70;;;;;;6191541;23;20534;-75
2022/08/13 11:44:31;;;;;;;3.00;2.15;;;36.50;17.30;;;;;;6218474;23;20130;-76
2022/08/13 11:46:57;;;;;;;2.67;1.17;;;36.40;16.50;;;;;;6219180;23;20011;-80
2022/08/13 11:49:23;;;;;;;2.65;1.15;;;36.30;16.70;;;;;;6192795;23;20015;-80
2022/08/13 11:51:49;;;;;;;3.45;1.13;;;36.20;16.70;;;;;;6219048;23;20350;-80
2022/08/13 11:54:14;;;;;;;1.92;1.35;;;36.30;16.50;;;;;;6218925;23;20079;-80
2022/08/13 11:56:40;;;;;;;2.83;1.20;;;36.20;17.00;;;;;;6219099;23;20012;-80
2022/08/13 11:59:06;;;;;;;2.78;1.58;;;36.10;16.80;;;;;;6216402;23;20032;-80
2022/08/13 12:01:32;;;;;;;4.05;1.50;;;36.20;16.90;;;;;;6189693;23;20013;-81
2022/08/13 12:03:58;;;;;;;2.50;1.17;;;36.20;16.60;;;;;;6217587;23;20000;-82
2022/08/13 12:06:23;;;;;;;2.15;1.27;;;36.40;17.20;;;;;;6217740;23;20039;-81
2022/08/13 12:08:49;;;;;;;2.70;1.00;;;36.60;17.00;;;;;;6217628;23;20011;-77
2022/08/13 12:11:15;;;;;;;2.70;1.25;;;36.80;16.90;;;;;;6190812;23;20027;-77
2022/08/13 12:13:41;;;;;;;3.05;1.27;;;36.80;16.50;;;;;;6191144;23;20011;-77
2022/08/13 12:16:06;;;;;;;2.10;1.23;;;36.80;16.50;;;;;;6218165;23;20007;-77
2022/08/13 12:18:32;;;;;;;1.45;1.02;;;36.80;16.20;;;;;;6217623;23;20002;-77
2022/08/13 12:20:58;;;;;;;1.65;1.20;;;36.80;16.40;;;;;;6190763;23;20027;-77
2022/08/13 12:23:23;;;;;;;2.38;1.30;;;36.70;15.60;;;;;;6217481;23;20694;-84
2022/08/13 12:25:49;;;;;;;5.40;1.02;;;36.70;16.30;;;;;;6191981;23;20008;-78
2022/08/13 12:28:18;;;;;;;1.95;1.20;;;36.70;15.80;;;;;;6218148;23;20005;-77
2022/08/13 12:30:51;;;;;;;2.60;1.13;;;36.80;15.80;;;;;;6191380;23;20016;-78
2022/08/13 12:33:17;;;;;;;2.50;1.10;;;36.60;15.70;;;;;;6192011;23;20011;-77
2022/08/13 12:35:44;;;;;;;3.50;1.27;;;36.40;16.10;;;;;;6192084;23;20562;-78
2022/08/13 12:38:13;;;;;;;3.45;1.23;;;36.60;16.50;;;;;;6217754;23;20012;-78
2022/08/13 12:40:40;;;;;;;3.35;1.40;;;36.50;16.50;;;;;;6218226;23;20004;-77
2022/08/13 12:43:07;;;;;;;1.70;1.20;;;36.50;16.40;;;;;;6218605;23;20001;-78
2022/08/13 12:45:35;;;;;;;3.30;1.17;;;36.40;16.00;;;;;;6191925;23;20074;-78
2022/08/13 12:48:13;;;;;;;1.95;1.02;;;36.50;16.30;;;;;;6217884;23;20012;-77
2022/08/13 12:50:41;;;;;;;2.75;1.20;;;36.50;15.90;;;;;;6218668;23;19996;-76
2022/08/13 12:53:08;;;;;;;2.97;1.17;;;36.40;16.10;;;;;;6218198;23;20005;-77
2022/08/13 12:55:35;;;;;;;3.45;1.15;;;36.40;16.30;;;;;;6218344;23;20047;-77
2022/08/13 12:58:18;;;;;;;4.45;1.30;;;36.50;15.70;;;;;;6191130;23;20380;-77
2022/08/13 13:00:45;;;;;;;2.17;1.38;;;36.40;15.50;;;;;;6191704;23;20452;-77
2022/08/13 13:03:12;;;;;;;2.38;1.08;;;36.40;15.70;;;;;;6218424;23;20001;-77
2022/08/13 13:05:39;;;;;;;2.30;1.30;;;36.60;16.60;;;;;;6218397;23;20005;-77
2022/08/13 13:08:22;;;;;;;2.10;1.17;;;36.70;16.30;;;;;;6218129;23;20083;-77
2022/08/13 13:10:50;;;;;;;2.25;1.17;;;36.70;16.10;;;;;;6192155;23;20080;-77
2022/08/13 13:13:18;;;;;;;2.83;1.38;;;36.70;16.40;;;;;;6191688;23;20001;-77
2022/08/13 13:15:44;;;;;;;1.77;1.20;;;36.50;15.90;;;;;;6217529;23;19996;-77
2022/08/13 13:18:19;;;;;;;2.13;1.50;;;36.60;16.30;;;;;;6217845;23;20004;-77
2022/08/13 13:20:46;;;;;;;3.90;1.25;;;36.60;16.10;;;;;;6218086;23;20058;-77
2022/08/13 13:23:14;;;;;;;2.33;1.10;;;36.70;16.40;;;;;;6191580;23;20004;-77
2022/08/13 13:25:41;;;;;;;1.85;1.25;;;36.60;15.90;;;;;;6217973;23;20073;-77
2022/08/13 13:28:08;;;;;;;4.18;1.42;;;36.70;16.30;;;;;;6218182;23;20384;-77
2022/08/13 13:30:36;;;;;;;3.20;1.52;;;36.80;16.40;;;;;;6191899;23;20000;-77
2022/08/13 13:33:02;;;;;;;1.60;1.10;;;36.90;16.30;;;;;;6190643;23;20322;-77
2022/08/13 13:35:29;;;;;;;1.70;1.13;;;36.80;15.80;;;;;;6217792;23;20008;-77
2022/08/13 13:37:55;;;;;;;3.08;1.38;;;36.60;16.30;;;;;;6218334;23;20314;-77
2022/08/13 13:40:20;;;;;;;2.72;1.60;;;36.60;16.30;;;;;;6191522;23;20075;-77
2022/08/13 13:42:46;;;;;;;4.90;1.70;;;36.60;16.40;;;;;;6191190;23;20023;-77
2022/08/13 13:45:12;;;;;;;1.40;1.00;;;36.80;16.50;;;;;;6218124;23;20075;-77
2022/08/13 13:47:37;;;;;;;3.10;1.27;;;36.80;16.30;;;;;;6217648;23;20009;-77
2022/08/13 13:50:06;;;;;;;2.78;1.67;;;36.90;16.80;;;;;;6217473;23;20000;-77
2022/08/13 13:52:32;;;;;;;1.90;1.23;;;36.90;16.00;;;;;;6218391;23;20005;-77
2022/08/13 13:54:58;;;;;;;3.45;1.50;;;36.90;16.50;;;;;;6217762;23;19997;-77
2022/08/13 13:57:27;;;;;;;1.90;1.40;;;36.90;16.40;;;;;;6217863;23;20059;-77
2022/08/13 13:59:53;;;;;;;3.03;1.10;;;36.80;16.50;;;;;;6191682;23;20035;-77
2022/08/13 14:02:19;;;;;;;1.60;1.20;;;36.70;16.20;;;;;;6217756;23;20005;-77
2022/08/13 14:04:45;;;;;;;2.75;1.60;;;36.70;16.30;;;;;;6191294;23;20444;-77
2022/08/13 14:07:11;;;;;;;1.90;1.40;;;36.60;16.00;;;;;;6217608;23;20016;-77
2022/08/13 14:09:40;;;;;;;4.32;1.25;;;36.50;16.50;;;;;;6192548;23;20325;-77
2022/08/13 14:12:06;;;;;;;2.03;1.50;;;36.40;16.60;;;;;;6219611;23;20000;-76
2022/08/13 14:14:32;;;;;;;2.30;1.23;;;36.50;17.00;;;;;;6220082;23;20036;-77
2022/08/13 14:17:03;;;;;;;2.10;1.30;;;36.70;17.20;;;;;;6193567;23;20005;-76
2022/08/13 14:19:30;;;;;;;3.13;1.40;;;36.80;16.40;;;;;;6219641;23;20444;-77
2022/08/13 14:21:58;;;;;;;1.98;1.27;;;36.70;16.40;;;;;;6219726;23;20011;-77
2022/08/13 14:24:24;;;;;;;2.55;1.20;;;36.80;16.60;;;;;;6219925;23;20000;-77
2022/08/13 14:26:50;;;;;;;3.88;1.20;;;36.80;16.50;;;;;;6193066;23;20012;-77
2022/08/13 14:29:16;;;;;;;1.83;1.20;;;36.80;16.40;;;;;;6219657;23;20058;-77
2022/08/13 14:31:43;;;;;;;3.63;1.30;;;36.80;16.90;;;;;;6219083;23;20120;-77
2022/08/13 14:34:10;;;;;;;2.83;1.42;;;36.90;16.20;;;;;;6219937;23;19997;-76
2022/08/13 14:36:36;;;;;;;3.03;1.25;;;36.90;16.60;;;;;;6219534;23;20001;-76
2022/08/13 14:39:04;;;;;;;2.45;1.25;;;36.90;16.80;;;;;;6193368;23;20009;-77
2022/08/13 14:41:33;;;;;;;3.88;1.30;;;37.00;16.70;;;;;;6219883;23;20537;-76
2022/08/13 14:43:59;;;;;;;2.53;1.17;;;36.90;16.50;;;;;;6219197;23;20135;-79
2022/08/13 14:46:24;;;;;;;2.53;1.20;;;36.80;16.50;;;;;;6219281;23;20005;-77
2022/08/13 14:48:50;;;;;;;10.30;2.90;;;36.70;16.70;;;;;;6219235;23;20008;-77
2022/08/13 14:51:17;;;;;;;2.85;1.52;;;36.60;16.30;;;;;;6219693;23;20001;-77
2022/08/13 14:53:43;;;;;;;2.17;1.08;;;36.50;16.40;;;;;;6219364;23;20001;-77
2022/08/13 14:56:10;;;;;;;2.17;1.65;;;36.50;16.30;;;;;;6219648;23;20001;-77
2022/08/13 14:58:36;;;;;;;2.75;1.77;;;36.50;16.90;;;;;;6192867;23;20000;-77
2022/08/13 15:01:02;;;;;;;3.65;1.30;;;36.50;16.60;;;;;;6218921;23;20388;-77
2022/08/13 15:03:29;;;;;;;2.92;1.38;;;36.40;16.50;;;;;;6193124;23;20529;-77
2022/08/13 15:06:00;;;;;;;1.92;1.25;;;36.40;16.70;;;;;;6218811;23;20360;-77
2022/08/13 15:08:28;;;;;;;4.60;1.30;;;36.50;16.50;;;;;;6219358;23;20012;-77
2022/08/13 15:10:56;;;;;;;2.92;1.48;;;36.50;16.40;;;;;;6218906;23;19997;-77
2022/08/13 15:13:23;;;;;;;2.67;1.15;;;36.60;16.40;;;;;;6219453;23;20054;-77
2022/08/13 15:15:50;;;;;;;3.65;1.30;;;36.70;16.70;;;;;;6219171;23;20000;-78
2022/08/13 15:18:23;;;;;;;2.70;1.30;;;36.80;16.70;;;;;;6191077;23;20043;-77
2022/08/13 15:20:52;;;;;;;3.88;1.25;;;36.80;16.70;;;;;;6192487;23;20031;-77
2022/08/13 15:23:20;;;;;;;2.90;1.05;;;36.60;16.30;;;;;;6219157;23;20032;-77
2022/08/13 15:25:47;;;;;;;2.22;1.10;;;36.40;16.30;;;;;;6192362;23;20005;-78
2022/08/13 15:28:18;;;;;;;3.42;1.40;;;36.50;16.90;;;;;;6217500;23;20077;-82
2022/08/13 15:30:47;;;;;;;1.85;1.30;;;36.40;16.10;;;;;;5899369;23;6583713;-79
2022/08/13 15:33:18;;;;;;;2.30;1.10;;;36.40;16.40;;;;;;6129860;23;20093;-71
2022/08/13 15:35:47;;;;;;;2.13;1.30;;;36.30;20.00;;;;;;6127286;23;20036;-80
2022/08/13 15:38:19;;;;;;;2.13;1.40;;;36.10;16.60;;;;;;6127200;23;20009;-80
2022/08/13 15:40:48;;;;;;;4.00;1.58;;;36.30;16.70;;;;;;6127491;23;20346;-77
2022/08/13 15:43:15;;;;;;;1.65;1.08;;;36.30;16.40;;;;;;6128299;23;20006;-80
2022/08/13 15:45:44;;;;;;;2.33;1.30;;;36.40;16.40;;;;;;6129700;23;20355;-78
2022/08/13 15:48:11;;;;;;;;;;;36.50;17.00;;;;;;6129521;23;20029;-80
2022/08/13 15:50:39;;;;;;;2.42;1.10;;;36.60;16.30;;;;;;6125591;23;19904;-78
2022/08/13 15:53:07;;;;;;;2.47;1.20;;;36.70;16.10;;;;;;6129313;23;20461;-78
2022/08/13 15:55:33;;;;;;;1.92;1.20;;;36.70;16.50;;;;;;6128901;23;20030;-79
2022/08/13 15:58:01;;;;;;;2.03;1.15;;;36.60;16.40;;;;;;6127852;23;20014;-78
2022/08/13 16:00:28;;;;;;;2.37;1.43;;;36.60;16.00;;;;;;6125588;23;20006;-79
2022/08/13 16:03:00;;;;;;;1.88;1.48;;;36.40;15.50;;;;;;6118803;23;20094;-80
2022/08/13 16:05:30;;;;;;;1.70;0.90;;;36.40;15.80;;;;;;6126089;23;20498;-79
2022/08/13 16:07:59;;;;;;;1.50;0.90;;;36.30;15.50;;;;;;6141327;23;20469;-79
2022/08/13 16:10:29;;;;;;;2.70;1.42;;;36.30;15.50;;;;;;6128446;23;20002;-78
2022/08/13 16:13:03;;;;;;;1.50;1.00;;;36.30;15.80;;;;;;6158381;23;20008;-81
2022/08/13 16:15:30;;;;;;;2.78;1.40;;;36.30;15.80;;;;;;6132242;23;20065;-77
2022/08/13 16:17:58;;;;;;;1.80;1.08;;;36.20;15.10;;;;;;6154124;23;20009;-78
2022/08/13 16:20:27;;;;;;;2.05;1.65;;;36.20;15.50;;;;;;6127578;23;20013;-77
2022/08/13 16:22:55;;;;;;;1.70;1.15;;;36.20;16.10;;;;;;6153017;23;20006;-78
2022/08/13 16:25:23;;;;;;;1.40;0.95;;;36.20;16.10;;;;;;6154451;23;20421;-77
2022/08/13 16:27:53;;;;;;;2.40;1.00;;;36.20;16.20;;;;;;6128291;23;20073;-78
2022/08/13 16:30:22;;;;;;;1.60;1.10;;;36.20;16.10;;;;;;6153745;23;20013;-77
2022/08/13 16:32:50;;;;;;;1.80;1.13;;;36.00;15.70;;;;;;6127971;23;20017;-66
2022/08/13 16:35:15;;;;;;;1.50;1.08;;;36.00;17.70;;;;;;6127943;23;20005;-65
2022/08/13 16:37:42;;;;;;;2.63;1.17;;;35.70;21.00;;;;;;6154583;23;20066;-65
2022/08/13 16:40:14;;;;;;;2.33;1.02;;;35.50;20.40;;;;;;6155138;23;20043;-66
2022/08/13 16:42:41;;;;;;;4.35;1.20;;;35.30;17.60;;;;;;6154581;23;20084;-77
2022/08/13 16:45:07;;;;;;;1.77;1.00;;;35.30;17.70;;;;;;6154060;23;20008;-78
2022/08/13 16:47:32;;;;;;;1.95;1.00;;;35.30;16.50;;;;;;6128362;23;20075;-79
2022/08/13 16:49:58;;;;;;;1.95;1.00;;;35.50;17.30;;;;;;6154868;23;20080;-82
2022/08/13 16:52:25;;;;;;;2.50;1.27;;;35.60;16.80;;;;;;6128286;23;20005;-83
2022/08/13 16:54:51;;;;;;;2.22;1.25;;;35.60;16.60;;;;;;6127886;23;20010;-83
2022/08/13 16:57:17;;;;;;;2.70;1.00;;;35.60;16.50;;;;;;6143718;23;20017;-83
2022/08/13 16:59:43;;;;;;;3.28;1.13;;;35.60;17.00;;;;;;6148265;23;20065;-81
2022/08/13 17:02:10;;;;;;;2.70;1.00;;;35.50;16.20;;;;;;6154054;23;20416;-80
2022/08/13 17:10:05;;;;;;;3.80;1.80;;;35.40;16.10;;;;;;6154623;23;20432;-82
2022/08/13 17:12:31;;;;;;;1.42;1.08;;;35.40;16.50;;;;;;6127636;23;20009;-76
2022/08/13 17:14:56;;;;;;;1.90;1.10;;;35.30;17.00;;;;;;6154534;23;20025;-82
2022/08/13 17:17:22;;;;;;;1.55;0.98;;;35.20;16.50;;;;;;6154507;23;20069;-79
2022/08/13 17:19:48;;;;;;;2.42;1.05;;;35.20;17.00;;;;;;6127853;23;20035;-80
2022/08/13 17:22:14;;;;;;;1.90;1.30;;;35.10;16.90;;;;;;6153904;23;20009;-82
2022/08/13 17:24:40;;;;;;;3.47;1.20;;;35.10;17.10;;;;;;6128749;23;20349;-86
2022/08/13 17:27:05;;;;;;;2.30;0.90;;;35.00;17.40;;;;;;6154449;23;20010;-82
2022/08/13 17:29:33;;;;;;;2.03;1.30;;;35.00;17.80;;;;;;6154168;23;20002;-81
2022/08/13 17:31:59;;;;;;;2.75;1.35;;;34.90;17.70;;;;;;6154108;23;20001;-84
2022/08/13 17:34:31;;;;;;;3.60;1.30;;;34.80;17.50;;;;;;6121762;23;20408;-80
2022/08/13 17:36:57;;;;;;;3.42;1.40;;;34.80;17.90;;;;;;6152951;23;20009;-78
2022/08/13 17:39:27;;;;;;;1.63;1.08;;;34.80;17.80;;;;;;6146212;23;20012;-83
2022/08/13 17:41:55;;;;;;;2.40;1.40;;;34.70;18.10;;;;;;6153191;23;20012;-81
2022/08/13 17:44:22;;;;;;;2.17;1.45;;;34.60;18.20;;;;;;6151424;23;20085;-80
2022/08/13 17:46:49;;;;;;;4.50;1.58;;;34.50;18.10;;;;;;6156153;23;20016;-83